Harrisville, Indiana
Current Conditions -  °F | °C
As of 7:15 AM on Friday 19 Dec 2014 (Local Time) from KVES Reporting Station
Overcast Overcast  
Wind Chill: -6°   Ceiling: 2200
Heat Index: -3°   Visibility: 10mi
Dew Point: -4°   Wind: 5mph
Humidity: 93%   Direction: 300°WNW
Pressure: 30.25"   Gusts: NA
Location:  40.2091°N, 84.8536°W
Report Text: KVES 191215Z AUTO 30004KT 10SM OVC022 M03/M04 A3025 RMK AO2
Loading
Personal Weather Stations






























Interactive Weather Map New forecast layout! Learn more

10-Day Weather Forecast

Advertisements
Track Severe Weather on mobile